sensor_id;sensor_type;location;lat;lon;timestamp;pressure;altitude;pressure_sealevel;temperature;humidity
5988;BME280;3021;51.000;6.980;2023-01-25T00:01:56;66550.22;;;2.28;100.00
5988;BME280;3021;51.000;6.980;2023-01-25T00:04:22;66547.34;;;2.25;100.00
5988;BME280;3021;51.000;6.980;2023-01-25T00:06:48;66546.78;;;2.24;100.00
5988;BME280;3021;51.000;6.980;2023-01-25T00:09:14;66550.78;;;2.28;100.00
5988;BME280;3021;51.000;6.980;2023-01-25T00:11:40;66543.75;;;2.19;100.00
5988;BME280;3021;51.000;6.980;2023-01-25T00:14:05;66535.28;;;2.14;100.00
5988;BME280;3021;51.000;6.980;2023-01-25T00:16:31;66537.59;;;2.16;100.00
5988;BME280;3021;51.000;6.980;2023-01-25T00:18:56;66545.88;;;2.19;100.00
5988;BME280;3021;51.000;6.980;2023-01-25T00:21:23;66549.47;;;2.24;100.00
5988;BME280;3021;51.000;6.980;2023-01-25T00:23:50;66547.19;;;2.22;100.00
5988;BME280;3021;51.000;6.980;2023-01-25T00:26:16;66542.75;;;2.21;100.00
5988;BME280;3021;51.000;6.980;2023-01-25T00:28:41;66535.88;;;2.15;100.00
5988;BME280;3021;51.000;6.980;2023-01-25T00:31:08;66544.16;;;2.17;100.00
5988;BME280;3021;51.000;6.980;2023-01-25T00:33:55;66527.25;;;2.07;100.00
5988;BME280;3021;51.000;6.980;2023-01-25T00:39:03;66523.81;;;2.04;100.00
5988;BME280;3021;51.000;6.980;2023-01-25T00:41:29;66527.13;;;2.04;100.00
5988;BME280;3021;51.000;6.980;2023-01-25T00:43:55;66522.53;;;2.00;100.00
5988;BME280;3021;51.000;6.980;2023-01-25T00:46:20;66520.38;;;2.01;100.00
5988;BME280;3021;51.000;6.980;2023-01-25T00:48:46;66528.97;;;2.08;100.00
5988;BME280;3021;51.000;6.980;2023-01-25T00:51:11;66531.84;;;2.11;100.00
5988;BME280;3021;51.000;6.980;2023-01-25T00:53:37;66537.59;;;2.16;100.00
5988;BME280;3021;51.000;6.980;2023-01-25T00:56:02;66538.16;;;2.17;100.00
5988;BME280;3021;51.000;6.980;2023-01-25T00:58:28;66536.44;;;2.15;100.00
5988;BME280;3021;51.000;6.980;2023-01-25T01:00:54;66538.91;;;2.20;100.00
5988;BME280;3021;51.000;6.980;2023-01-25T01:03:20;66541.03;;;2.19;100.00
5988;BME280;3021;51.000;6.980;2023-01-25T01:05:45;66535.88;;;2.15;100.00
5988;BME280;3021;51.000;6.980;2023-01-25T01:08:12;66537.59;;;2.16;100.00
5988;BME280;3021;51.000;6.980;2023-01-25T01:10:38;66537.59;;;2.16;100.00
5988;BME280;3021;51.000;6.980;2023-01-25T01:13:03;66527.13;;;2.04;100.00
5988;BME280;3021;51.000;6.980;2023-01-25T01:15:29;66533.00;;;2.12;100.00
5988;BME280;3021;51.000;6.980;2023-01-25T01:17:54;66529.56;;;2.09;100.00
5988;BME280;3021;51.000;6.980;2023-01-25T01:20:19;66529.56;;;2.09;100.00
5988;BME280;3021;51.000;6.980;2023-01-25T01:22:45;66530.72;;;2.10;100.00
5988;BME280;3021;51.000;6.980;2023-01-25T01:25:10;66524.41;;;2.04;100.00
5988;BME280;3021;51.000;6.980;2023-01-25T01:27:37;66521.13;;;2.04;100.00
5988;BME280;3021;51.000;6.980;2023-01-25T01:30:03;66526.69;;;2.06;100.00
5988;BME280;3021;51.000;6.980;2023-01-25T01:32:28;66524.41;;;2.04;100.00
5988;BME280;3021;51.000;6.980;2023-01-25T01:34:53;66521.72;;;2.04;100.00
5988;BME280;3021;51.000;6.980;2023-01-25T01:37:19;66528.25;;;2.05;100.00
5988;BME280;3021;51.000;6.980;2023-01-25T01:39:44;66525.97;;;2.03;100.00
5988;BME280;3021;51.000;6.980;2023-01-25T01:42:09;66516.94;;;1.98;100.00
5988;BME280;3021;51.000;6.980;2023-01-25T01:45:01;66524.25;;;2.02;100.00
5988;BME280;3021;51.000;6.980;2023-01-25T01:47:41;66515.22;;;1.96;100.00
5988;BME280;3021;51.000;6.980;2023-01-25T01:50:21;66518.66;;;1.99;100.00
5988;BME280;3021;51.000;6.980;2023-01-25T01:52:47;66515.06;;;1.94;100.00
5988;BME280;3021;51.000;6.980;2023-01-25T01:55:15;66505.47;;;1.87;100.00
5988;BME280;3021;51.000;6.980;2023-01-25T01:57:48;66518.50;;;1.97;100.00
5988;BME280;3021;51.000;6.980;2023-01-25T02:00:22;66529.97;;;2.07;100.00
5988;BME280;3021;51.000;6.980;2023-01-25T02:02:50;66518.84;;;2.02;100.00
5988;BME280;3021;51.000;6.980;2023-01-25T02:05:26;66514.06;;;1.95;100.00
5988;BME280;3021;51.000;6.980;2023-01-25T02:07:54;66509.50;;;1.91;100.00
5988;BME280;3021;51.000;6.980;2023-01-25T02:10:23;66514.66;;;1.96;100.00
5988;BME280;3021;51.000;6.980;2023-01-25T02:12:50;66525.97;;;2.03;100.00
5988;BME280;3021;51.000;6.980;2023-01-25T02:15:16;66524.97;;;2.05;100.00
5988;BME280;3021;51.000;6.980;2023-01-25T02:17:42;66516.22;;;1.95;100.00
5988;BME280;3021;51.000;6.980;2023-01-25T02:22:53;66513.19;;;1.89;100.00
5988;BME280;3021;51.000;6.980;2023-01-25T02:25:20;66514.50;;;1.93;100.00
5988;BME280;3021;51.000;6.980;2023-01-25T02:27:52;66513.91;;;1.93;100.00
5988;BME280;3021;51.000;6.980;2023-01-25T02:30:19;66507.78;;;1.89;100.00
5988;BME280;3021;51.000;6.980;2023-01-25T02:32:45;66511.78;;;1.93;100.00
5988;BME280;3021;51.000;6.980;2023-01-25T02:35:18;66520.06;;;1.96;100.00
5988;BME280;3021;51.000;6.980;2023-01-25T02:37:44;66519.22;;;2.00;100.00
5988;BME280;3021;51.000;6.980;2023-01-25T02:40:10;66524.41;;;2.04;100.00
5988;BME280;3021;51.000;6.980;2023-01-25T02:42:36;66527.25;;;2.07;100.00
5988;BME280;3021;51.000;6.980;2023-01-25T02:45:01;66523.09;;;2.01;100.00
5988;BME280;3021;51.000;6.980;2023-01-25T02:47:29;66524.66;;;2.00;100.00
5988;BME280;3021;51.000;6.980;2023-01-25T02:49:55;66517.34;;;1.96;100.00
5988;BME280;3021;51.000;6.980;2023-01-25T02:52:20;66519.22;;;2.00;100.00
5988;BME280;3021;51.000;6.980;2023-01-25T02:54:45;66516.22;;;1.95;100.00
5988;BME280;3021;51.000;6.980;2023-01-25T02:57:11;66505.31;;;1.85;100.00
5988;BME280;3021;51.000;6.980;2023-01-25T02:59:36;66496.31;;;1.79;100.00
5988;BME280;3021;51.000;6.980;2023-01-25T03:02:01;66496.72;;;1.77;100.00
5988;BME280;3021;51.000;6.980;2023-01-25T03:04:27;66493.44;;;1.77;100.00
5988;BME280;3021;51.000;6.980;2023-01-25T03:06:52;66484.84;;;1.69;100.00
5988;BME280;3021;51.000;6.980;2023-01-25T03:09:17;66483.69;;;1.68;100.00
5988;BME280;3021;51.000;6.980;2023-01-25T03:11:42;66487.13;;;1.71;100.00
5988;BME280;3021;51.000;6.980;2023-01-25T03:14:08;66484.25;;;1.68;100.00
5988;BME280;3021;51.000;6.980;2023-01-25T03:16:33;66484.84;;;1.69;100.00
5988;BME280;3021;51.000;6.980;2023-01-25T03:18:59;66474.13;;;1.62;100.00
5988;BME280;3021;51.000;6.980;2023-01-25T03:21:24;66482.38;;;1.64;100.00
5988;BME280;3021;51.000;6.980;2023-01-25T03:23:58;66476.22;;;1.61;100.00
5988;BME280;3021;51.000;6.980;2023-01-25T03:26:24;66472.78;;;1.58;100.00
5988;BME280;3021;51.000;6.980;2023-01-25T03:28:50;66475.34;;;1.55;100.00
5988;BME280;3021;51.000;6.980;2023-01-25T03:31:16;66481.97;;;1.66;100.00
5988;BME280;3021;51.000;6.980;2023-01-25T03:33:42;66477.94;;;1.63;100.00
5988;BME280;3021;51.000;6.980;2023-01-25T03:36:08;66479.53;;;1.62;100.00
5988;BME280;3021;51.000;6.980;2023-01-25T03:38:34;66477.06;;;1.57;100.00
5988;BME280;3021;51.000;6.980;2023-01-25T03:41:00;66475.09;;;1.60;100.00
5988;BME280;3021;51.000;6.980;2023-01-25T03:43:25;66473.34;;;1.59;100.00
5988;BME280;3021;51.000;6.980;2023-01-25T03:45:56;66464.22;;;1.50;100.00
5988;BME280;3021;51.000;6.980;2023-01-25T03:48:23;66469.94;;;1.55;100.00
5988;BME280;3021;51.000;6.980;2023-01-25T03:50:56;66479.53;;;1.62;100.00
5988;BME280;3021;51.000;6.980;2023-01-25T03:53:31;66470.66;;;1.59;100.00
5988;BME280;3021;51.000;6.980;2023-01-25T03:56:09;66476.97;;;1.64;100.00
5988;BME280;3021;51.000;6.980;2023-01-25T03:58:37;66480.09;;;1.62;100.00
5988;BME280;3021;51.000;6.980;2023-01-25T04:01:04;66472.78;;;1.58;100.00
5988;BME280;3021;51.000;6.980;2023-01-25T04:03:30;66471.63;;;1.57;100.00
5988;BME280;3021;51.000;6.980;2023-01-25T04:05:56;66464.78;;;1.51;100.00
5988;BME280;3021;51.000;6.980;2023-01-25T04:08:22;66442.41;;;1.31;100.00
5988;BME280;3021;51.000;6.980;2023-01-25T04:11:09;66445.13;;;1.31;100.00
5988;BME280;3021;51.000;6.980;2023-01-25T04:13:35;66449.28;;;1.37;100.00
5988;BME280;3021;51.000;6.980;2023-01-25T04:16:03;66451.25;;;1.34;100.00
5988;BME280;3021;51.000;6.980;2023-01-25T04:18:28;66443.56;;;1.32;100.00
5988;BME280;3021;51.000;6.980;2023-01-25T04:20:55;66443.56;;;1.32;100.00
5988;BME280;3021;51.000;6.980;2023-01-25T04:23:21;66442.00;;;1.33;100.00
5988;BME280;3021;51.000;6.980;2023-01-25T04:26:00;66440.13;;;1.29;100.00
5988;BME280;3021;51.000;6.980;2023-01-25T04:28:26;66441.84;;;1.30;100.00
5988;BME280;3021;51.000;6.980;2023-01-25T04:30:53;66454.13;;;1.36;100.00
5988;BME280;3021;51.000;6.980;2023-01-25T04:33:19;66452.75;;;1.40;100.00
5988;BME280;3021;51.000;6.980;2023-01-25T04:35:45;66454.47;;;1.42;100.00
5988;BME280;3021;51.000;6.980;2023-01-25T04:38:10;66459.44;;;1.44;100.00
5988;BME280;3021;51.000;6.980;2023-01-25T04:40:36;66460.19;;;1.47;100.00
5988;BME280;3021;51.000;6.980;2023-01-25T04:43:02;66460.78;;;1.47;100.00
5988;BME280;3021;51.000;6.980;2023-01-25T04:45:27;66456.91;;;1.46;100.00
5988;BME280;3021;51.000;6.980;2023-01-25T04:47:59;66471.50;;;1.54;100.00
5988;BME280;3021;51.000;6.980;2023-01-25T04:50:24;66468.22;;;1.54;100.00
5988;BME280;3021;51.000;6.980;2023-01-25T04:52:50;66469.78;;;1.53;100.00
5988;BME280;3021;51.000;6.980;2023-01-25T04:55:16;66473.22;;;1.56;100.00
5988;BME280;3021;51.000;6.980;2023-01-25T04:57:41;66464.78;;;1.51;100.00
5988;BME280;3021;51.000;6.980;2023-01-25T05:00:07;66459.63;;;1.46;100.00
5988;BME280;3021;51.000;6.980;2023-01-25T05:02:33;66466.31;;;1.50;100.00
5988;BME280;3021;51.000;6.980;2023-01-25T05:04:58;66467.63;;;1.53;100.00
5988;BME280;3021;51.000;6.980;2023-01-25T05:07:23;66457.31;;;1.44;100.00
5988;BME280;3021;51.000;6.980;2023-01-25T05:09:49;66459.44;;;1.44;100.00
5988;BME280;3021;51.000;6.980;2023-01-25T05:12:14;66454.47;;;1.42;100.00
5988;BME280;3021;51.000;6.980;2023-01-25T05:14:39;66447.00;;;1.35;100.00
5988;BME280;3021;51.000;6.980;2023-01-25T05:17:05;66447.56;;;1.35;100.00
5988;BME280;3021;51.000;6.980;2023-01-25T05:19:32;66450.03;;;1.40;100.00
5988;BME280;3021;51.000;6.980;2023-01-25T05:21:58;66460.00;;;1.44;100.00
5988;BME280;3021;51.000;6.980;2023-01-25T05:24:27;66466.50;;;1.52;100.00
5988;BME280;3021;51.000;6.980;2023-01-25T05:26:54;66469.19;;;1.52;100.00
5988;BME280;3021;51.000;6.980;2023-01-25T05:29:27;66465.34;;;1.51;100.00
5988;BME280;3021;51.000;6.980;2023-01-25T05:31:52;66477.38;;;1.62;100.00
5988;BME280;3021;51.000;6.980;2023-01-25T05:34:17;66471.63;;;1.57;100.00
5988;BME280;3021;51.000;6.980;2023-01-25T05:36:43;66467.63;;;1.53;100.00
5988;BME280;3021;51.000;6.980;2023-01-25T05:39:08;66473.03;;;1.53;100.00
5988;BME280;3021;51.000;6.980;2023-01-25T05:41:34;66460.78;;;1.47;100.00
5988;BME280;3021;51.000;6.980;2023-01-25T05:43:59;66460.78;;;1.47;100.00
5988;BME280;3021;51.000;6.980;2023-01-25T05:46:27;66466.91;;;1.50;100.00
5988;BME280;3021;51.000;6.980;2023-01-25T05:48:53;66470.75;;;1.51;100.00
5988;BME280;3021;51.000;6.980;2023-01-25T05:51:18;66465.91;;;1.52;100.00
5988;BME280;3021;51.000;6.980;2023-01-25T05:53:44;66465.91;;;1.52;100.00
5988;BME280;3021;51.000;6.980;2023-01-25T05:56:09;66473.34;;;1.59;100.00
5988;BME280;3021;51.000;6.980;2023-01-25T05:58:35;66482.38;;;1.64;100.00
5988;BME280;3021;51.000;6.980;2023-01-25T06:01:05;66481.81;;;1.64;100.00
5988;BME280;3021;51.000;6.980;2023-01-25T06:03:31;66488.53;;;1.67;100.00
5988;BME280;3021;51.000;6.980;2023-01-25T06:05:57;66486.41;;;1.68;100.00
5988;BME280;3021;51.000;6.980;2023-01-25T06:08:23;66488.28;;;1.72;100.00
5988;BME280;3021;51.000;6.980;2023-01-25T06:10:49;66489.81;;;1.71;100.00
5988;BME280;3021;51.000;6.980;2023-01-25T06:13:15;66483.34;;;1.63;100.00
5988;BME280;3021;51.000;6.980;2023-01-25T06:15:41;66479.66;;;1.64;100.00
5988;BME280;3021;51.000;6.980;2023-01-25T06:18:06;66482.97;;;1.65;100.00
5988;BME280;3021;51.000;6.980;2023-01-25T06:20:32;66476.81;;;1.62;100.00
5988;BME280;3021;51.000;6.980;2023-01-25T06:22:58;66476.81;;;1.62;100.00
5988;BME280;3021;51.000;6.980;2023-01-25T06:25:23;66487.13;;;1.71;100.00
5988;BME280;3021;51.000;6.980;2023-01-25T06:27:48;66488.13;;;1.69;100.00
5988;BME280;3021;51.000;6.980;2023-01-25T06:30:14;66483.53;;;1.65;100.00
5988;BME280;3021;51.000;6.980;2023-01-25T06:32:39;66479.09;;;1.64;100.00
5988;BME280;3021;51.000;6.980;2023-01-25T06:35:05;66480.25;;;1.65;100.00
5988;BME280;3021;51.000;6.980;2023-01-25T06:37:32;66478.94;;;1.61;100.00
5988;BME280;3021;51.000;6.980;2023-01-25T06:39:58;66470.34;;;1.53;100.00
5988;BME280;3021;51.000;6.980;2023-01-25T06:42:23;66476.81;;;1.62;100.00
5988;BME280;3021;51.000;6.980;2023-01-25T06:44:49;66480.81;;;1.65;100.00
5988;BME280;3021;51.000;6.980;2023-01-25T06:47:14;66476.06;;;1.59;100.00
5988;BME280;3021;51.000;6.980;2023-01-25T06:49:39;66473.34;;;1.59;100.00
5988;BME280;3021;51.000;6.980;2023-01-25T06:52:05;66474.50;;;1.60;100.00
5988;BME280;3021;51.000;6.980;2023-01-25T06:54:30;66472.22;;;1.58;100.00
5988;BME280;3021;51.000;6.980;2023-01-25T06:56:55;66465.50;;;1.54;100.00
5988;BME280;3021;51.000;6.980;2023-01-25T06:59:21;66466.31;;;1.50;100.00
5988;BME280;3021;51.000;6.980;2023-01-25T07:01:46;66475.50;;;1.58;100.00
5988;BME280;3021;51.000;6.980;2023-01-25T07:04:11;66473.34;;;1.59;100.00
5988;BME280;3021;51.000;6.980;2023-01-25T07:06:37;66479.09;;;1.64;100.00
5988;BME280;3021;51.000;6.980;2023-01-25T07:09:08;66474.94;;;1.58;100.00
5988;BME280;3021;51.000;6.980;2023-01-25T07:11:35;66473.22;;;1.56;100.00
5988;BME280;3021;51.000;6.980;2023-01-25T07:14:01;66475.91;;;1.56;100.00
5988;BME280;3021;51.000;6.980;2023-01-25T07:16:26;66477.81;;;1.60;100.00
5988;BME280;3021;51.000;6.980;2023-01-25T07:18:52;66475.50;;;1.58;100.00
5988;BME280;3021;51.000;6.980;2023-01-25T07:21:22;66463.63;;;1.50;100.00
5988;BME280;3021;51.000;6.980;2023-01-25T07:23:48;66463.06;;;1.49;100.00
5988;BME280;3021;51.000;6.980;2023-01-25T07:26:15;66460.53;;;1.52;100.00
5988;BME280;3021;51.000;6.980;2023-01-25T07:28:41;66468.38;;;1.57;100.00
5988;BME280;3021;51.000;6.980;2023-01-25T07:31:07;66471.06;;;1.57;100.00
5988;BME280;3021;51.000;6.980;2023-01-25T07:33:34;66471.50;;;1.54;100.00
5988;BME280;3021;51.000;6.980;2023-01-25T07:36:03;66463.47;;;1.47;100.00
5988;BME280;3021;51.000;6.980;2023-01-25T07:38:29;66468.78;;;1.54;100.00
5988;BME280;3021;51.000;6.980;2023-01-25T07:40:55;66481.06;;;1.61;100.00
5988;BME280;3021;51.000;6.980;2023-01-25T07:43:20;66476.81;;;1.62;100.00
5988;BME280;3021;51.000;6.980;2023-01-25T07:45:46;66464.22;;;1.50;100.00
5988;BME280;3021;51.000;6.980;2023-01-25T07:48:15;66465.91;;;1.52;100.00
5988;BME280;3021;51.000;6.980;2023-01-25T07:50:41;66470.91;;;1.54;100.00
5988;BME280;3021;51.000;6.980;2023-01-25T07:53:10;66480.81;;;1.65;100.00
5988;BME280;3021;51.000;6.980;2023-01-25T07:55:36;66477.94;;;1.63;100.00
5988;BME280;3021;51.000;6.980;2023-01-25T07:58:01;66473.22;;;1.56;100.00
5988;BME280;3021;51.000;6.980;2023-01-25T08:00:27;66480.25;;;1.65;100.00
5988;BME280;3021;51.000;6.980;2023-01-25T08:02:52;66476.22;;;1.61;100.00
5988;BME280;3021;51.000;6.980;2023-01-25T08:05:18;66471.06;;;1.57;100.00
5988;BME280;3021;51.000;6.980;2023-01-25T08:07:44;66467.06;;;1.53;100.00
5988;BME280;3021;51.000;6.980;2023-01-25T08:10:09;66462.50;;;1.49;100.00
5988;BME280;3021;51.000;6.980;2023-01-25T08:12:35;66461.16;;;1.45;100.00
5988;BME280;3021;51.000;6.980;2023-01-25T08:15:01;66457.16;;;1.42;100.00
5988;BME280;3021;51.000;6.980;2023-01-25T08:17:26;66444.31;;;1.35;100.00
5988;BME280;3021;51.000;6.980;2023-01-25T08:19:59;66457.91;;;1.45;100.00
5988;BME280;3021;51.000;6.980;2023-01-25T08:22:25;66462.50;;;1.49;100.00
5988;BME280;3021;51.000;6.980;2023-01-25T08:24:51;66463.78;;;1.52;100.00
5988;BME280;3021;51.000;6.980;2023-01-25T08:27:16;66470.91;;;1.54;100.00
5988;BME280;3021;51.000;6.980;2023-01-25T08:29:41;66464.94;;;1.53;100.00
5988;BME280;3021;51.000;6.980;2023-01-25T08:32:07;66472.78;;;1.58;100.00
5988;BME280;3021;51.000;6.980;2023-01-25T08:34:33;66476.22;;;1.61;100.00
5988;BME280;3021;51.000;6.980;2023-01-25T08:36:59;66477.81;;;1.60;100.00
5988;BME280;3021;51.000;6.980;2023-01-25T08:39:24;66481.25;;;1.63;100.00
5988;BME280;3021;51.000;6.980;2023-01-25T08:41:49;66481.81;;;1.64;100.00
5988;BME280;3021;51.000;6.980;2023-01-25T08:44:15;66494.84;;;1.73;100.00
5988;BME280;3021;51.000;6.980;2023-01-25T08:46:40;66496.31;;;1.79;100.00
5988;BME280;3021;51.000;6.980;2023-01-25T08:49:05;66502.28;;;1.80;100.00
5988;BME280;3021;51.000;6.980;2023-01-25T08:51:32;66491.53;;;1.72;100.00
5988;BME280;3021;51.000;6.980;2023-01-25T08:54:02;66489.66;;;1.68;100.00
5988;BME280;3021;51.000;6.980;2023-01-25T08:56:28;66492.69;;;1.73;100.00
5988;BME280;3021;51.000;6.980;2023-01-25T08:58:53;66484.84;;;1.69;100.00
5988;BME280;3021;51.000;6.980;2023-01-25T09:01:18;66485.81;;;1.67;100.00
5988;BME280;3021;51.000;6.980;2023-01-25T09:03:47;66463.06;;;1.49;100.00
5988;BME280;3021;51.000;6.980;2023-01-25T09:06:14;66459.44;;;1.44;100.00
5988;BME280;3021;51.000;6.980;2023-01-25T09:08:40;66452.31;;;1.42;100.00
5988;BME280;3021;51.000;6.980;2023-01-25T09:11:08;66458.47;;;1.45;100.00
5988;BME280;3021;51.000;6.980;2023-01-25T09:13:34;66463.47;;;1.47;100.00
5988;BME280;3021;51.000;6.980;2023-01-25T09:16:01;66464.59;;;1.48;100.00
5988;BME280;3021;51.000;6.980;2023-01-25T09:18:28;66452.56;;;1.37;100.00
5988;BME280;3021;51.000;6.980;2023-01-25T09:20:54;66453.47;;;1.43;100.00
5988;BME280;3021;51.000;6.980;2023-01-25T09:23:19;66437.09;;;1.24;100.00
5988;BME280;3021;51.000;6.980;2023-01-25T09:25:57;66439.38;;;1.26;100.00
5988;BME280;3021;51.000;6.980;2023-01-25T09:28:23;66441.28;;;1.30;100.00
5988;BME280;3021;51.000;6.980;2023-01-25T09:30:57;66452.16;;;1.40;100.00
5988;BME280;3021;51.000;6.980;2023-01-25T09:33:34;66461.59;;;1.43;100.00
5988;BME280;3021;51.000;6.980;2023-01-25T09:36:00;66464.22;;;1.50;100.00
5988;BME280;3021;51.000;6.980;2023-01-25T09:38:25;66464.03;;;1.48;100.00
5988;BME280;3021;51.000;6.980;2023-01-25T09:49:30;66488.13;;;1.69;100.00
5988;BME280;3021;51.000;6.980;2023-01-25T09:54:37;66491.16;;;1.75;100.00
5988;BME280;3021;51.000;6.980;2023-01-25T09:57:20;66485.97;;;1.70;100.00
5988;BME280;3021;51.000;6.980;2023-01-25T09:59:48;66499.75;;;1.82;100.00
5988;BME280;3021;51.000;6.980;2023-01-25T10:05:20;66504.75;;;1.84;100.00
5988;BME280;3021;51.000;6.980;2023-01-25T10:08:01;66500.00;;;1.78;100.00
5988;BME280;3021;51.000;6.980;2023-01-25T10:10:41;66491.16;;;1.75;100.00
5988;BME280;3021;51.000;6.980;2023-01-25T10:13:15;66499.34;;;1.84;100.00
5988;BME280;3021;51.000;6.980;2023-01-25T10:16:05;66501.47;;;1.84;100.00
5988;BME280;3021;51.000;6.980;2023-01-25T10:21:39;66498.44;;;1.79;100.00
5988;BME280;3021;51.000;6.980;2023-01-25T10:26:51;66523.25;;;2.03;100.00
5988;BME280;3021;51.000;6.980;2023-01-25T10:29:21;66528.97;;;2.08;100.00
5988;BME280;3021;51.000;6.980;2023-01-25T10:31:52;66538.00;;;2.14;100.00
5988;BME280;3021;51.000;6.980;2023-01-25T10:34:35;66541.59;;;2.20;100.00
5988;BME280;3021;51.000;6.980;2023-01-25T10:37:12;66552.50;;;2.30;100.00
5988;BME280;3021;51.000;6.980;2023-01-25T10:39:54;66553.22;;;2.33;100.00
5988;BME280;3021;51.000;6.980;2023-01-25T10:42:25;66561.69;;;2.38;100.00
5988;BME280;3021;51.000;6.980;2023-01-25T10:44:51;66560.94;;;2.35;100.00
5988;BME280;3021;51.000;6.980;2023-01-25T10:47:25;66562.25;;;2.38;100.00
5988;BME280;3021;51.000;6.980;2023-01-25T10:49:56;66545.63;;;2.23;100.00
5988;BME280;3021;51.000;6.980;2023-01-25T10:52:30;66537.59;;;2.16;100.00
5988;BME280;3021;51.000;6.980;2023-01-25T10:55:19;66527.84;;;2.07;100.00
5988;BME280;3021;51.000;6.980;2023-01-25T10:57:49;66530.13;;;2.10;100.00
5988;BME280;3021;51.000;6.980;2023-01-25T11:00:38;66540.63;;;2.21;100.00
5988;BME280;3021;51.000;6.980;2023-01-25T11:03:05;66548.91;;;2.24;100.00
5988;BME280;3021;51.000;6.980;2023-01-25T11:07:57;66556.69;;;2.36;100.00
5988;BME280;3021;51.000;6.980;2023-01-25T11:10:35;66562.09;;;2.36;100.00
5988;BME280;3021;51.000;6.980;2023-01-25T11:15:40;66563.25;;;2.37;100.00
5988;BME280;3021;51.000;6.980;2023-01-25T11:18:10;66557.66;;;2.34;100.00
5988;BME280;3021;51.000;6.980;2023-01-25T11:20:36;66555.94;;;2.33;100.00
5988;BME280;3021;51.000;6.980;2023-01-25T11:23:02;66559.41;;;2.36;100.00
5988;BME280;3021;51.000;6.980;2023-01-25T11:30:44;66571.84;;;2.45;100.00
5988;BME280;3021;51.000;6.980;2023-01-25T11:33:11;66565.28;;;2.44;100.00
5988;BME280;3021;51.000;6.980;2023-01-25T11:38:31;66568.56;;;2.44;100.00
5988;BME280;3021;51.000;6.980;2023-01-25T11:41:10;66572.59;;;2.48;100.00
5988;BME280;3021;51.000;6.980;2023-01-25T11:49:03;66577.75;;;2.52;100.00
5988;BME280;3021;51.000;6.980;2023-01-25T11:51:43;66571.59;;;2.49;100.00
5988;BME280;3021;51.000;6.980;2023-01-25T11:56:59;66569.16;;;2.45;100.00
5988;BME280;3021;51.000;6.980;2023-01-25T12:00:15;66553.66;;;2.31;100.00
5988;BME280;3021;51.000;6.980;2023-01-25T12:30:04;66542.75;;;2.21;100.00
5988;BME280;3021;51.000;6.980;2023-01-25T12:32:40;66538.16;;;2.17;100.00
5988;BME280;3021;51.000;6.980;2023-01-25T12:35:26;66541.38;;;2.24;100.00
5988;BME280;3021;51.000;6.980;2023-01-25T12:38:00;66549.47;;;2.24;100.00
5988;BME280;3021;51.000;6.980;2023-01-25T12:41:07;66546.19;;;2.24;100.00
5988;BME280;3021;51.000;6.980;2023-01-25T12:43:44;66540.88;;;2.17;100.00
5988;BME280;3021;51.000;6.980;2023-01-25T12:46:25;66528.41;;;2.08;100.00
5988;BME280;3021;51.000;6.980;2023-01-25T12:48:52;66527.44;;;2.10;100.00
5988;BME280;3021;51.000;6.980;2023-01-25T12:51:20;66539.31;;;2.18;100.00
5988;BME280;3021;51.000;6.980;2023-01-25T12:53:47;66546.03;;;2.21;100.00
5988;BME280;3021;51.000;6.980;2023-01-25T12:56:40;66539.31;;;2.18;100.00
5988;BME280;3021;51.000;6.980;2023-01-25T12:59:37;66531.28;;;2.11;100.00
5988;BME280;3021;51.000;6.980;2023-01-25T13:02:21;66524.41;;;2.04;100.00
5988;BME280;3021;51.000;6.980;2023-01-25T13:05:02;66521.13;;;2.04;100.00
5988;BME280;3021;51.000;6.980;2023-01-25T13:07:45;66523.25;;;2.03;100.00
5988;BME280;3021;51.000;6.980;2023-01-25T13:10:23;66523.81;;;2.04;100.00
5988;BME280;3021;51.000;6.980;2023-01-25T13:13:02;66522.66;;;2.03;100.00
5988;BME280;3021;51.000;6.980;2023-01-25T13:15:43;66508.19;;;1.87;100.00
5988;BME280;3021;51.000;6.980;2023-01-25T13:20:54;66523.25;;;2.03;100.00
5988;BME280;3021;51.000;6.980;2023-01-25T13:28:46;66550.63;;;2.25;100.00
5988;BME280;3021;51.000;6.980;2023-01-25T13:36:52;66554.22;;;2.31;100.00
5988;BME280;3021;51.000;6.980;2023-01-25T13:39:40;66535.28;;;2.14;100.00
5988;BME280;3021;51.000;6.980;2023-01-25T13:44:39;66541.47;;;2.17;100.00
5988;BME280;3021;51.000;6.980;2023-01-25T13:47:14;66537.59;;;2.16;100.00
5988;BME280;3021;51.000;6.980;2023-01-25T13:50:00;66541.84;;;2.15;100.00
5988;BME280;3021;51.000;6.980;2023-01-25T13:52:27;66539.88;;;2.18;100.00
5988;BME280;3021;51.000;6.980;2023-01-25T13:54:56;66538.59;;;2.15;100.00
5988;BME280;3021;51.000;6.980;2023-01-25T13:57:27;66532.44;;;2.12;100.00
5988;BME280;3021;51.000;6.980;2023-01-25T14:00:05;66533.44;;;2.10;100.00
5988;BME280;3021;51.000;6.980;2023-01-25T14:02:41;66542.19;;;2.20;100.00
5988;BME280;3021;51.000;6.980;2023-01-25T14:05:24;66543.75;;;2.19;100.00
5988;BME280;3021;51.000;6.980;2023-01-25T14:07:52;66537.59;;;2.16;100.00
5988;BME280;3021;51.000;6.980;2023-01-25T14:10:24;66524.56;;;2.07;100.00
5988;BME280;3021;51.000;6.980;2023-01-25T14:12:53;66515.06;;;1.94;100.00
5988;BME280;3021;51.000;6.980;2023-01-25T14:15:30;66520.38;;;2.01;100.00
5988;BME280;3021;51.000;6.980;2023-01-25T14:18:17;66524.97;;;2.05;100.00
5988;BME280;3021;51.000;6.980;2023-01-25T14:20:46;66524.97;;;2.05;100.00
5988;BME280;3021;51.000;6.980;2023-01-25T14:23:28;66522.28;;;2.05;100.00
5988;BME280;3021;51.000;6.980;2023-01-25T14:25:55;66520.94;;;2.01;100.00
5988;BME280;3021;51.000;6.980;2023-01-25T14:28:24;66524.06;;;1.99;100.00
5988;BME280;3021;51.000;6.980;2023-01-25T14:30:52;66526.13;;;2.06;100.00
5988;BME280;3021;51.000;6.980;2023-01-25T14:33:26;66524.41;;;2.04;100.00
5988;BME280;3021;51.000;6.980;2023-01-25T14:35:54;66521.53;;;2.02;100.00
5988;BME280;3021;51.000;6.980;2023-01-25T14:38:21;66523.81;;;2.04;100.00
5988;BME280;3021;51.000;6.980;2023-01-25T14:40:48;66521.53;;;2.02;100.00
5988;BME280;3021;51.000;6.980;2023-01-25T14:43:15;66520.38;;;2.01;100.00
5988;BME280;3021;51.000;6.980;2023-01-25T14:45:41;66529.22;;;2.04;100.00
5988;BME280;3021;51.000;6.980;2023-01-25T14:48:32;66533.44;;;2.10;100.00
5988;BME280;3021;51.000;6.980;2023-01-25T14:51:02;66532.59;;;2.14;100.00
5988;BME280;3021;51.000;6.980;2023-01-25T14:53:29;66536.03;;;2.17;100.00
5988;BME280;3021;51.000;6.980;2023-01-25T14:55:56;66534.16;;;2.13;100.00
5988;BME280;3021;51.000;6.980;2023-01-25T14:58:22;66537.00;;;2.16;100.00
5988;BME280;3021;51.000;6.980;2023-01-25T15:00:56;66538.16;;;2.17;100.00
5988;BME280;3021;51.000;6.980;2023-01-25T15:03:25;66530.56;;;2.07;100.00